createdAt,value
2023-04-15T00:02:01.716Z,98.10
2023-04-15T00:04:28.928Z,98.10
2023-04-15T00:06:55.994Z,98.10
2023-04-15T00:09:23.004Z,98.20
2023-04-15T00:11:50.539Z,98.20
2023-04-15T00:14:17.599Z,98.10
2023-04-15T00:16:44.680Z,98.40
2023-04-15T00:19:12.268Z,98.20
2023-04-15T00:21:39.252Z,98.20
2023-04-15T00:24:06.108Z,98.10
2023-04-15T00:26:33.402Z,98.00
2023-04-15T00:29:00.464Z,97.90
2023-04-15T00:31:27.686Z,98.00
2023-04-15T00:33:54.869Z,97.70
2023-04-15T00:36:23.588Z,97.70
2023-04-15T00:38:50.686Z,97.70
2023-04-15T00:41:18.094Z,97.70
2023-04-15T00:43:44.985Z,97.70
2023-04-15T00:46:13.144Z,97.50
2023-04-15T00:48:40.129Z,97.70
2023-04-15T00:51:07.820Z,97.70
2023-04-15T00:53:34.731Z,97.60
2023-04-15T00:56:01.609Z,97.70
2023-04-15T00:58:28.545Z,97.70
2023-04-15T01:00:55.876Z,97.40
2023-04-15T01:03:23.072Z,97.70
2023-04-15T01:05:50.172Z,97.80
2023-04-15T01:08:17.300Z,97.70
2023-04-15T01:10:44.180Z,97.70
2023-04-15T01:13:11.023Z,97.70
2023-04-15T01:15:37.870Z,97.80
2023-04-15T01:18:04.837Z,98.10
2023-04-15T01:20:31.794Z,98.20
2023-04-15T01:23:00.674Z,97.80
2023-04-15T01:25:31.508Z,97.70
2023-04-15T01:27:58.411Z,97.70
2023-04-15T01:30:26.018Z,97.70
2023-04-15T01:32:53.764Z,97.50
2023-04-15T01:35:21.640Z,97.70
2023-04-15T01:37:48.602Z,97.80
2023-04-15T01:40:17.426Z,97.80
2023-04-15T01:42:44.302Z,98.00
2023-04-15T01:45:11.362Z,97.90
2023-04-15T01:47:38.590Z,97.70
2023-04-15T01:50:06.011Z,97.70
2023-04-15T01:52:32.961Z,97.70
2023-04-15T01:54:59.870Z,97.70
2023-04-15T01:57:27.225Z,97.90
2023-04-15T01:59:54.132Z,98.00
2023-04-15T02:02:21.993Z,98.10
2023-04-15T02:04:49.025Z,97.70
2023-04-15T02:07:16.691Z,97.80
2023-04-15T02:09:43.753Z,97.80
2023-04-15T02:12:10.623Z,97.70
2023-04-15T02:14:37.538Z,97.60
2023-04-15T02:17:07.580Z,97.90
2023-04-15T02:19:35.029Z,98.20
2023-04-15T02:22:03.705Z,98.40
2023-04-15T02:24:30.903Z,98.30
2023-04-15T02:26:57.806Z,98.40
2023-04-15T02:29:25.042Z,98.40
2023-04-15T02:31:52.182Z,98.20
2023-04-15T02:34:20.588Z,98.20
2023-04-15T02:36:48.852Z,98.50
2023-04-15T02:39:18.720Z,98.40
2023-04-15T02:41:47.959Z,98.10
2023-04-15T02:44:15.744Z,98.10
2023-04-15T02:46:43.699Z,98.20
2023-04-15T02:49:11.105Z,98.20
2023-04-15T02:51:38.079Z,98.40
2023-04-15T02:54:05.021Z,98.10
2023-04-15T02:56:31.857Z,98.50
2023-04-15T02:58:58.866Z,98.60
2023-04-15T03:01:26.567Z,98.60
2023-04-15T03:03:53.553Z,98.80
2023-04-15T03:06:20.844Z,99.10
2023-04-15T03:08:50.863Z,99.00
2023-04-15T03:11:18.838Z,99.00
2023-04-15T03:13:45.763Z,99.20
2023-04-15T03:16:24.634Z,99.10
2023-04-15T03:18:51.673Z,98.80
2023-04-15T03:21:20.885Z,99.20
2023-04-15T03:23:49.040Z,99.00
2023-04-15T03:26:29.074Z,98.90
2023-04-15T03:28:59.752Z,99.00
2023-04-15T03:31:27.193Z,99.20
2023-04-15T03:33:54.241Z,99.20
2023-04-15T03:36:21.306Z,99.10
2023-04-15T03:38:49.510Z,99.20
2023-04-15T03:41:16.350Z,99.40
2023-04-15T03:43:43.206Z,99.40
2023-04-15T03:46:10.121Z,98.90
2023-04-15T03:48:37.050Z,99.20
2023-04-15T03:51:04.172Z,99.20
2023-04-15T03:53:31.190Z,99.20
2023-04-15T03:55:58.055Z,99.10
2023-04-15T03:58:24.986Z,99.20
2023-04-15T04:00:51.926Z,99.40
2023-04-15T04:03:19.058Z,99.30
2023-04-15T04:05:46.168Z,99.30
2023-04-15T04:08:16.558Z,99.30
2023-04-15T04:10:43.485Z,99.00
2023-04-15T04:13:10.366Z,99.00
2023-04-15T04:15:37.291Z,99.20
2023-04-15T04:18:04.253Z,99.20
2023-04-15T04:20:32.285Z,99.00
2023-04-15T04:22:59.163Z,99.20
2023-04-15T04:25:26.313Z,99.00
2023-04-15T04:27:53.202Z,99.10
2023-04-15T04:30:20.179Z,99.10
2023-04-15T04:32:47.058Z,99.20
2023-04-15T04:35:13.971Z,99.20
2023-04-15T04:37:40.855Z,98.90
2023-04-15T04:40:08.289Z,99.10
2023-04-15T04:42:36.047Z,99.10
2023-04-15T04:45:04.432Z,99.10
2023-04-15T04:47:31.469Z,99.40
2023-04-15T04:49:58.368Z,99.30
2023-04-15T04:52:25.304Z,99.10
2023-04-15T04:54:52.196Z,99.00
2023-04-15T04:57:19.111Z,99.30
2023-04-15T04:59:46.167Z,99.30
2023-04-15T05:02:13.294Z,99.10
2023-04-15T05:04:41.978Z,99.10
2023-04-15T05:07:08.952Z,99.10
2023-04-15T05:09:36.959Z,98.90
2023-04-15T05:12:04.454Z,98.90
2023-04-15T05:14:32.398Z,98.80
2023-04-15T05:16:59.294Z,99.00
2023-04-15T05:19:26.211Z,99.10
2023-04-15T05:21:53.177Z,99.00
2023-04-15T05:24:20.124Z,98.80
2023-04-15T05:26:47.227Z,98.40
2023-04-15T05:29:14.093Z,98.60
2023-04-15T05:31:41.062Z,98.70
2023-04-15T05:34:08.013Z,98.60
2023-04-15T05:36:34.938Z,98.60
2023-04-15T05:39:02.284Z,98.30
2023-04-15T05:41:29.473Z,98.60
2023-04-15T05:43:56.555Z,98.70
2023-04-15T05:46:23.532Z,98.70
2023-04-15T05:48:50.884Z,98.70
2023-04-15T05:51:17.777Z,98.50
2023-04-15T05:53:46.153Z,98.60
2023-04-15T05:56:13.121Z,98.70
2023-04-15T05:58:40.045Z,98.70
2023-04-15T06:01:07.435Z,98.80
2023-04-15T06:03:34.690Z,98.70
2023-04-15T06:06:02.648Z,98.60
2023-04-15T06:08:29.640Z,98.40
2023-04-15T06:10:56.598Z,98.80
2023-04-15T06:13:23.452Z,98.70
2023-04-15T06:15:50.394Z,98.60
2023-04-15T06:18:17.411Z,98.30
2023-04-15T06:20:44.390Z,98.10
2023-04-15T06:23:11.515Z,98.10
2023-04-15T06:25:38.419Z,98.20
2023-04-15T06:28:05.610Z,98.20
2023-04-15T06:30:32.465Z,97.90
2023-04-15T06:32:59.411Z,98.00
2023-04-15T06:35:26.294Z,98.50
2023-04-15T06:37:53.190Z,98.20
2023-04-15T06:40:20.207Z,98.20
2023-04-15T06:42:47.120Z,98.00
2023-04-15T06:45:16.163Z,97.90
2023-04-15T06:47:43.793Z,98.00
2023-04-15T06:50:11.637Z,98.20
2023-04-15T06:52:38.637Z,98.00
2023-04-15T06:55:05.979Z,97.70
2023-04-15T06:57:34.523Z,98.20
2023-04-15T07:00:02.350Z,98.30
2023-04-15T07:02:29.399Z,98.20
2023-04-15T07:04:57.144Z,98.00
2023-04-15T07:07:24.092Z,98.00
2023-04-15T07:09:51.494Z,98.10
2023-04-15T07:12:18.370Z,97.70
2023-04-15T07:14:45.286Z,97.90
2023-04-15T07:17:12.477Z,97.90
2023-04-15T07:19:39.417Z,97.70
2023-04-15T07:22:06.444Z,97.70
2023-04-15T07:24:33.441Z,97.40
2023-04-15T07:27:01.130Z,97.60
2023-04-15T07:29:28.416Z,97.80
2023-04-15T07:31:57.316Z,97.70
2023-04-15T07:34:24.734Z,98.20
2023-04-15T07:36:52.234Z,97.80
2023-04-15T07:39:19.234Z,97.70
2023-04-15T07:41:46.715Z,97.80
2023-04-15T07:44:13.885Z,97.80
2023-04-15T07:46:40.887Z,97.80
2023-04-15T07:49:07.911Z,97.80
2023-04-15T07:51:34.818Z,97.90
2023-04-15T07:54:01.728Z,97.50
2023-04-15T07:56:28.741Z,97.60
2023-04-15T07:58:55.773Z,97.90
2023-04-15T08:01:22.884Z,97.40
2023-04-15T08:03:49.929Z,97.80
2023-04-15T08:06:16.970Z,97.40
2023-04-15T08:08:44.195Z,97.40
2023-04-15T08:11:11.064Z,97.60
2023-04-15T08:13:38.000Z,97.50
2023-04-15T08:16:20.723Z,96.50
2023-04-15T08:18:47.847Z,97.10
2023-04-15T08:21:15.225Z,97.20
2023-04-15T08:23:42.809Z,96.90
2023-04-15T08:26:09.904Z,96.60
2023-04-15T08:28:38.364Z,96.40
2023-04-15T08:31:05.327Z,96.90
2023-04-15T08:33:32.792Z,96.40
2023-04-15T08:35:59.786Z,96.40
2023-04-15T08:38:27.241Z,96.80
2023-04-15T08:40:54.274Z,96.40
2023-04-15T08:43:24.361Z,96.50
2023-04-15T08:45:52.347Z,96.60
2023-04-15T08:48:19.293Z,96.60
2023-04-15T08:50:46.301Z,95.40
2023-04-15T08:53:13.190Z,94.60
2023-04-15T08:55:41.643Z,95.10
2023-04-15T08:58:08.492Z,94.80
2023-04-15T09:00:35.902Z,94.30
2023-04-15T09:03:02.830Z,94.80
2023-04-15T09:05:31.973Z,94.90
2023-04-15T09:07:58.848Z,94.70
2023-04-15T09:10:25.829Z,93.90
2023-04-15T09:12:52.765Z,92.60
2023-04-15T09:15:19.694Z,92.90
2023-04-15T09:17:46.798Z,93.40
2023-04-15T09:20:14.587Z,93.10
2023-04-15T09:22:41.842Z,92.80
2023-04-15T09:25:31.704Z,93.60
2023-04-15T09:28:01.254Z,93.20
2023-04-15T09:30:28.377Z,92.80
2023-04-15T09:32:56.729Z,93.40
2023-04-15T09:35:23.976Z,93.60
2023-04-15T09:37:51.514Z,93.60
2023-04-15T09:40:37.352Z,92.50
2023-04-15T09:43:05.350Z,92.40
2023-04-15T09:45:32.503Z,91.50
2023-04-15T09:47:59.764Z,91.00
2023-04-15T09:50:29.797Z,91.70
2023-04-15T09:52:56.727Z,90.50
2023-04-15T09:55:23.765Z,90.00
2023-04-15T09:57:50.750Z,90.50
2023-04-15T10:00:17.874Z,86.40
2023-04-15T10:02:45.213Z,87.20
2023-04-15T10:05:13.897Z,86.30
2023-04-15T10:07:43.774Z,90.20
2023-04-15T10:10:11.177Z,90.20
2023-04-15T10:12:38.280Z,90.80
2023-04-15T10:15:05.505Z,89.10
2023-04-15T10:17:37.301Z,85.70
2023-04-15T10:20:05.352Z,90.20
2023-04-15T10:22:33.124Z,91.00
2023-04-15T10:25:02.995Z,89.60
2023-04-15T10:27:30.019Z,89.30
2023-04-15T10:29:57.069Z,90.10
2023-04-15T10:32:24.833Z,90.80
2023-04-15T10:34:54.196Z,90.70
2023-04-15T10:37:37.695Z,89.30
2023-04-15T10:40:34.854Z,90.90
2023-04-15T10:43:02.512Z,91.30
2023-04-15T10:45:32.967Z,90.70
2023-04-15T10:48:03.481Z,90.80
2023-04-15T10:50:34.062Z,89.10
2023-04-15T10:53:02.933Z,89.50
2023-04-15T10:55:32.113Z,88.10
2023-04-15T10:57:59.416Z,88.40
2023-04-15T11:00:26.892Z,90.10
2023-04-15T11:02:57.149Z,90.60
2023-04-15T11:05:44.277Z,89.50
2023-04-15T11:08:11.380Z,82.50
2023-04-15T11:10:38.276Z,77.90
2023-04-15T11:13:06.015Z,87.30
2023-04-15T11:15:39.423Z,81.80
2023-04-15T11:18:19.078Z,82.20
2023-04-15T11:20:46.723Z,86.80
2023-04-15T11:23:15.751Z,81.30
2023-04-15T11:25:43.526Z,79.70
2023-04-15T11:28:11.119Z,85.80
2023-04-15T11:30:38.396Z,80.90
2023-04-15T11:33:06.346Z,79.50
2023-04-15T11:35:33.616Z,73.20
2023-04-15T11:38:04.393Z,80.20
2023-04-15T11:40:31.865Z,75.10
2023-04-15T11:43:11.395Z,76.90
2023-04-15T11:45:48.313Z,83.50
2023-04-15T11:48:15.703Z,78.50
2023-04-15T11:50:42.694Z,75.60
2023-04-15T11:53:10.116Z,70.90
2023-04-15T11:55:55.131Z,73.60
2023-04-15T11:58:23.461Z,72.70
2023-04-15T12:01:00.269Z,73.90
2023-04-15T12:03:31.240Z,69.30
2023-04-15T12:06:04.406Z,72.20
2023-04-15T12:08:50.720Z,69.30
2023-04-15T12:11:17.794Z,72.30
2023-04-15T12:13:45.174Z,74.90
2023-04-15T12:16:12.478Z,69.50
2023-04-15T12:18:39.500Z,65.30
2023-04-15T12:21:09.936Z,65.90
2023-04-15T12:23:40.574Z,64.50
2023-04-15T12:26:07.733Z,61.80
2023-04-15T12:28:36.813Z,48.70
2023-04-15T12:31:10.335Z,54.90
2023-04-15T12:33:37.668Z,37.90
2023-04-15T12:36:04.931Z,44.60
2023-04-15T12:38:32.297Z,46.70
2023-04-15T12:40:59.438Z,40.00
2023-04-15T12:43:26.764Z,43.40
2023-04-15T12:45:53.751Z,42.70
2023-04-15T12:48:20.615Z,43.50
2023-04-15T12:50:47.508Z,42.90
2023-04-15T12:53:14.581Z,45.60
2023-04-15T12:55:41.960Z,51.90
2023-04-15T12:58:08.958Z,49.10
2023-04-15T13:00:35.844Z,36.20
2023-04-15T13:03:04.828Z,35.70
2023-04-15T13:05:33.836Z,44.90
2023-04-15T13:08:01.121Z,35.40
2023-04-15T13:10:28.636Z,37.00
2023-04-15T13:12:56.956Z,40.60
2023-04-15T13:15:23.956Z,42.10
2023-04-15T13:17:50.976Z,46.70
2023-04-15T13:20:18.236Z,42.50
2023-04-15T13:22:45.271Z,39.30
2023-04-15T13:25:12.737Z,43.80
2023-04-15T13:27:39.804Z,38.50
2023-04-15T13:30:06.837Z,36.80
2023-04-15T13:32:33.849Z,43.40
2023-04-15T13:35:00.761Z,34.50
2023-04-15T13:37:28.244Z,32.80
2023-04-15T13:39:56.449Z,35.40
2023-04-15T13:42:23.715Z,29.80
2023-04-15T13:44:51.759Z,23.40
2023-04-15T13:47:22.147Z,28.50
2023-04-15T13:49:49.247Z,18.20
2023-04-15T13:52:16.253Z,21.60
2023-04-15T13:54:43.179Z,22.20
2023-04-15T13:57:10.206Z,19.10
2023-04-15T13:59:37.244Z,15.10
2023-04-15T14:02:04.360Z,14.20
2023-04-15T14:04:31.717Z,16.30
2023-04-15T14:06:58.787Z,12.20
2023-04-15T14:09:26.522Z,17.40
2023-04-15T14:11:54.841Z,17.50
2023-04-15T14:14:21.735Z,14.80
2023-04-15T14:16:48.755Z,15.20
2023-04-15T14:19:15.959Z,15.20
2023-04-15T14:21:42.804Z,14.00
2023-04-15T14:24:10.076Z,10.40
2023-04-15T14:26:36.968Z,12.10
2023-04-15T14:29:04.250Z,7.50
2023-04-15T14:31:31.467Z,10.70
2023-04-15T14:33:58.409Z,8.40
2023-04-15T14:36:25.284Z,9.50
2023-04-15T14:38:52.291Z,12.90
2023-04-15T14:41:19.202Z,9.10
2023-04-15T14:43:46.177Z,9.10
2023-04-15T14:46:14.574Z,10.70
2023-04-15T14:48:41.628Z,11.20
2023-04-15T14:51:08.585Z,8.90
2023-04-15T14:53:35.575Z,10.90
2023-04-15T14:56:02.523Z,7.20
2023-04-15T14:58:29.392Z,12.00
2023-04-15T15:00:56.454Z,11.00
2023-04-15T15:03:23.659Z,10.40
2023-04-15T15:05:50.905Z,7.80
2023-04-15T15:08:17.857Z,10.40
2023-04-15T15:10:49.396Z,8.80
2023-04-15T15:13:16.889Z,9.00
2023-04-15T15:15:43.877Z,10.30
2023-04-15T15:18:11.025Z,10.30
2023-04-15T15:20:37.908Z,11.50
2023-04-15T15:23:04.883Z,11.50
2023-04-15T15:25:31.760Z,11.30
2023-04-15T15:27:58.789Z,12.70
2023-04-15T15:30:25.720Z,11.30
2023-04-15T15:32:52.725Z,8.60
2023-04-15T15:35:19.749Z,10.00
2023-04-15T15:37:46.886Z,8.50
2023-04-15T15:40:13.874Z,8.90
2023-04-15T15:42:40.903Z,6.30
2023-04-15T15:45:07.874Z,7.90
2023-04-15T15:47:34.881Z,5.50
2023-04-15T15:50:03.119Z,5.60
2023-04-15T15:52:32.090Z,6.70
2023-04-15T15:54:58.991Z,12.10
2023-04-15T15:57:25.871Z,14.60
2023-04-15T16:00:04.698Z,16.00
2023-04-15T16:03:02.436Z,16.30
2023-04-15T16:05:24.184Z,17.00
2023-04-15T16:07:51.116Z,16.60
2023-04-15T16:10:18.009Z,16.40
2023-04-15T16:12:44.935Z,17.40
2023-04-15T16:15:12.209Z,19.90
2023-04-15T16:17:39.120Z,19.50
2023-04-15T16:20:06.613Z,20.50
2023-04-15T16:22:34.420Z,20.90
2023-04-15T16:25:01.404Z,23.20
2023-04-15T16:27:28.285Z,21.90
2023-04-15T16:29:55.214Z,23.90
2023-04-15T16:32:22.130Z,23.90
2023-04-15T16:34:49.136Z,25.00
2023-04-15T16:37:16.188Z,24.00
2023-04-15T16:39:43.231Z,30.50
2023-04-15T16:42:10.341Z,38.50
2023-04-15T16:44:37.272Z,43.00
2023-04-15T16:47:04.254Z,46.40
2023-04-15T16:49:31.381Z,48.20
2023-04-15T16:51:58.477Z,58.30
2023-04-15T16:54:25.410Z,58.40
2023-04-15T16:56:52.286Z,62.10
2023-04-15T16:59:19.164Z,58.20
2023-04-15T17:01:46.063Z,64.00
2023-04-15T17:04:13.142Z,64.70
2023-04-15T17:06:40.057Z,59.30
2023-04-15T17:09:07.172Z,59.90
2023-04-15T17:11:35.335Z,60.40
2023-04-15T17:14:06.025Z,59.20
2023-04-15T17:16:32.998Z,59.00
2023-04-15T17:18:59.893Z,54.80
2023-04-15T17:21:27.592Z,58.00
2023-04-15T17:23:54.576Z,54.00
2023-04-15T17:26:22.268Z,49.80
2023-04-15T17:28:49.266Z,49.60
2023-04-15T17:31:16.171Z,47.40
2023-04-15T17:33:57.629Z,45.80
2023-04-15T17:36:31.135Z,45.70
2023-04-15T17:38:58.055Z,49.10
2023-04-15T17:41:24.984Z,41.40
2023-04-15T17:43:51.864Z,40.80
2023-04-15T17:46:19.589Z,44.60
2023-04-15T17:48:46.678Z,39.60
2023-04-15T17:51:13.682Z,38.40
2023-04-15T17:53:40.784Z,40.70
2023-04-15T17:56:08.240Z,42.90
2023-04-15T17:58:35.085Z,43.70
2023-04-15T18:01:02.050Z,46.80
2023-04-15T18:03:29.056Z,42.10
2023-04-15T18:05:56.101Z,43.20
2023-04-15T18:08:23.039Z,38.90
2023-04-15T18:10:49.940Z,39.40
2023-04-15T18:13:16.789Z,39.80
2023-04-15T18:15:45.617Z,41.40
2023-04-15T18:18:13.725Z,41.70
2023-04-15T18:20:40.703Z,44.90
2023-04-15T18:23:07.646Z,47.50
2023-04-15T18:25:34.641Z,44.20
2023-04-15T18:28:01.771Z,42.70
2023-04-15T18:30:28.626Z,41.60
2023-04-15T18:32:55.655Z,39.50
2023-04-15T18:35:22.924Z,40.10
2023-04-15T18:37:49.827Z,41.30
2023-04-15T18:40:16.856Z,42.10
2023-04-15T18:42:43.736Z,46.30
2023-04-15T18:45:11.071Z,49.80
2023-04-15T18:47:38.057Z,49.00
2023-04-15T18:50:05.215Z,50.50
2023-04-15T18:52:32.247Z,52.50
2023-04-15T18:54:59.195Z,52.30
2023-04-15T18:57:31.729Z,56.40
2023-04-15T19:00:03.187Z,59.70
2023-04-15T19:02:30.247Z,61.10
2023-04-15T19:04:57.228Z,63.90
2023-04-15T19:07:24.187Z,65.50
2023-04-15T19:09:51.149Z,66.80
2023-04-15T19:12:18.049Z,69.00
2023-04-15T19:14:45.095Z,71.90
2023-04-15T19:17:12.069Z,74.90
2023-04-15T19:19:39.128Z,75.30
2023-04-15T19:22:06.315Z,76.30
2023-04-15T19:24:33.521Z,76.90
2023-04-15T19:27:01.641Z,77.90
2023-04-15T19:29:31.261Z,78.80
2023-04-15T19:31:58.162Z,79.80
2023-04-15T19:34:25.278Z,80.80
2023-04-15T19:36:52.267Z,80.00
2023-04-15T19:39:19.791Z,79.70
2023-04-15T19:41:47.541Z,80.20
2023-04-15T19:44:14.513Z,81.10
2023-04-15T19:46:42.133Z,83.80
2023-04-15T19:49:08.987Z,83.80
2023-04-15T19:51:35.896Z,82.40
2023-04-15T19:54:02.863Z,84.10
2023-04-15T19:56:31.665Z,83.60
2023-04-15T19:59:00.110Z,85.40
2023-04-15T20:01:27.367Z,84.60
2023-04-15T20:03:54.817Z,85.90
2023-04-15T20:06:21.979Z,86.60
2023-04-15T20:08:48.931Z,86.00
2023-04-15T20:11:15.851Z,85.60
2023-04-15T20:13:42.807Z,86.10
2023-04-15T20:16:09.805Z,85.60
2023-04-15T20:18:36.680Z,87.20
2023-04-15T20:21:03.638Z,87.30
2023-04-15T20:23:30.563Z,88.10
2023-04-15T20:25:57.410Z,88.90
2023-04-15T20:28:27.555Z,90.60
2023-04-15T20:30:54.467Z,90.70
2023-04-15T20:33:22.388Z,90.80
2023-04-15T20:35:49.415Z,91.00
2023-04-15T20:38:16.616Z,91.20
2023-04-15T20:40:43.815Z,91.70
2023-04-15T20:43:10.684Z,92.00
2023-04-15T20:45:38.170Z,92.30
2023-04-15T20:48:05.374Z,92.60
2023-04-15T20:50:32.318Z,92.90
2023-04-15T20:52:59.230Z,93.00
2023-04-15T20:55:26.229Z,93.10
2023-04-15T20:57:53.186Z,93.30
2023-04-15T21:00:20.138Z,93.70
2023-04-15T21:02:47.247Z,93.70
2023-04-15T21:05:14.171Z,93.90
2023-04-15T21:07:41.331Z,94.20
2023-04-15T21:10:08.300Z,94.40
2023-04-15T21:12:36.166Z,94.00
2023-04-15T21:15:03.213Z,93.90
2023-04-15T21:17:30.163Z,93.70
2023-04-15T21:19:57.226Z,93.70
2023-04-15T21:22:24.101Z,93.70
2023-04-15T21:24:50.961Z,93.50
2023-04-15T21:27:18.110Z,93.70
2023-04-15T21:29:44.931Z,93.70
2023-04-15T21:32:11.970Z,93.70
2023-04-15T21:34:38.892Z,93.50
2023-04-15T21:37:05.790Z,93.70
2023-04-15T21:39:32.640Z,93.80
2023-04-15T21:41:59.663Z,93.70
2023-04-15T21:44:26.673Z,93.70
2023-04-15T21:46:53.664Z,93.70
2023-04-15T21:49:20.872Z,93.70
2023-04-15T21:51:48.178Z,93.70
2023-04-15T21:54:15.083Z,93.70
2023-04-15T21:56:43.254Z,93.70
2023-04-15T21:59:10.171Z,93.70
2023-04-15T22:01:37.487Z,93.70
2023-04-15T22:04:06.205Z,93.60
2023-04-15T22:06:33.207Z,93.50
2023-04-15T22:09:00.161Z,93.60
2023-04-15T22:11:27.850Z,93.60
2023-04-15T22:13:55.706Z,93.60
2023-04-15T22:16:22.824Z,93.90
2023-04-15T22:18:49.862Z,93.60
2023-04-15T22:21:16.793Z,94.50
2023-04-15T22:23:47.666Z,95.00
2023-04-15T22:26:14.681Z,94.90
2023-04-15T22:28:41.941Z,94.80
2023-04-15T22:31:08.998Z,94.90
2023-04-15T22:33:36.199Z,94.90
2023-04-15T22:36:03.279Z,95.10
2023-04-15T22:38:30.238Z,94.80
2023-04-15T22:40:57.218Z,95.10
2023-04-15T22:43:24.129Z,95.30
2023-04-15T22:45:51.225Z,95.40
2023-04-15T22:48:18.575Z,95.50
2023-04-15T22:50:45.636Z,95.60
2023-04-15T22:53:12.667Z,95.60
2023-04-15T22:55:39.616Z,95.60
2023-04-15T22:58:06.568Z,95.50
2023-04-15T23:00:33.509Z,95.60
2023-04-15T23:03:00.835Z,95.60
2023-04-15T23:05:27.976Z,95.60
2023-04-15T23:07:54.910Z,95.60
2023-04-15T23:10:21.857Z,95.50
2023-04-15T23:12:48.779Z,95.50
2023-04-15T23:15:15.921Z,95.50
2023-04-15T23:17:43.129Z,95.50
2023-04-15T23:20:10.443Z,95.50
2023-04-15T23:22:37.761Z,95.50
2023-04-15T23:25:05.305Z,95.30
2023-04-15T23:27:32.196Z,95.60
2023-04-15T23:29:59.090Z,95.70
2023-04-15T23:32:26.746Z,95.40
2023-04-15T23:34:53.681Z,95.50
2023-04-15T23:37:20.835Z,95.60
2023-04-15T23:39:47.757Z,95.80
2023-04-15T23:42:14.680Z,96.00
2023-04-15T23:44:41.612Z,95.80
2023-04-15T23:47:08.505Z,95.80
2023-04-15T23:49:36.744Z,95.70
2023-04-15T23:52:03.644Z,95.70
2023-04-15T23:54:30.589Z,95.50
2023-04-15T23:56:57.506Z,95.40
2023-04-15T23:59:24.343Z,95.60
